createdAt,value
2018-03-20T00:00:11.483Z,100765.11
2018-03-20T00:02:39.113Z,100760.48
2018-03-20T00:05:06.703Z,100766.13
2018-03-20T00:07:34.400Z,100762.24
2018-03-20T00:10:01.995Z,100763.06
2018-03-20T00:12:29.618Z,100756.65
2018-03-20T00:14:57.214Z,100753.28
2018-03-20T00:17:24.878Z,100756.69
2018-03-20T00:19:52.472Z,100747.56
2018-03-20T00:22:20.091Z,100745.91
2018-03-20T00:24:47.710Z,100744.30
2018-03-20T00:27:15.295Z,100750.33
2018-03-20T00:29:42.886Z,100743.55
2018-03-20T00:32:10.480Z,100750.36
2018-03-20T00:34:38.062Z,100745.26
2018-03-20T00:37:05.648Z,100746.84
2018-03-20T00:39:34.272Z,100743.70
2018-03-20T00:42:01.860Z,100745.11
2018-03-20T00:44:29.454Z,100745.77
2018-03-20T00:46:57.039Z,100744.77
2018-03-20T00:49:24.627Z,100741.60
2018-03-20T00:51:52.210Z,100740.47
2018-03-20T00:54:19.804Z,100735.81
2018-03-20T00:56:47.390Z,100732.39
2018-03-20T00:59:15.023Z,100723.85
2018-03-20T01:01:42.610Z,100725.23
2018-03-20T01:04:10.202Z,100723.28
2018-03-20T01:06:37.791Z,100727.68
2018-03-20T01:09:05.458Z,100727.08
2018-03-20T01:11:33.091Z,100726.38
2018-03-20T01:14:00.680Z,100715.17
2018-03-20T01:16:28.269Z,100716.48
2018-03-20T01:18:55.855Z,100715.14
2018-03-20T01:21:23.493Z,100711.72
2018-03-20T01:23:51.083Z,100713.47
2018-03-20T01:26:18.666Z,100713.84
2018-03-20T01:28:46.259Z,100717.35
2018-03-20T01:31:13.853Z,100714.91
2018-03-20T01:33:41.439Z,100709.83
2018-03-20T01:36:09.060Z,100708.51
2018-03-20T01:38:36.647Z,100712.44
2018-03-20T01:41:04.286Z,100702.72
2018-03-20T01:43:31.872Z,100702.16
2018-03-20T01:45:59.464Z,100701.78
2018-03-20T01:48:27.062Z,100698.53
2018-03-20T01:50:54.869Z,100695.30
2018-03-20T01:53:22.501Z,100697.08
2018-03-20T01:55:50.089Z,100686.34
2018-03-20T01:58:17.679Z,100684.70
2018-03-20T02:00:45.395Z,100684.30
2018-03-20T02:03:12.983Z,100678.44
2018-03-20T02:05:41.355Z,100676.59
2018-03-20T02:08:08.948Z,100678.67
2018-03-20T02:10:37.156Z,100679.52
2018-03-20T02:13:04.796Z,100678.49
2018-03-20T02:15:32.387Z,100672.11
2018-03-20T02:17:59.974Z,100672.66
2018-03-20T02:20:27.561Z,100675.97
2018-03-20T02:22:55.184Z,100671.84
2018-03-20T02:25:22.810Z,100677.61
2018-03-20T02:27:50.473Z,100662.23
2018-03-20T02:30:18.167Z,100668.23
2018-03-20T02:32:45.760Z,100669.11
2018-03-20T02:35:13.338Z,100663.53
2018-03-20T02:37:40.927Z,100665.84
2018-03-20T02:40:08.510Z,100664.16
2018-03-20T02:42:36.139Z,100664.19
2018-03-20T02:45:04.587Z,100654.80
2018-03-20T02:47:32.179Z,100659.39
2018-03-20T02:50:00.733Z,100650.20
2018-03-20T02:52:28.318Z,100653.86
2018-03-20T02:54:55.940Z,100646.80
2018-03-20T02:57:23.558Z,100649.00
2018-03-20T02:59:51.699Z,100649.11
2018-03-20T03:02:19.288Z,100649.48
2018-03-20T03:04:46.900Z,100650.40
2018-03-20T03:07:14.491Z,100644.95
2018-03-20T03:09:42.851Z,100645.87
2018-03-20T03:12:10.430Z,100635.30
2018-03-20T03:14:38.013Z,100642.94
2018-03-20T03:17:06.399Z,100644.64
2018-03-20T03:19:33.989Z,100646.31
2018-03-20T03:22:01.576Z,100638.22
2018-03-20T03:24:30.110Z,100641.20
2018-03-20T03:26:58.515Z,100646.77
2018-03-20T03:29:27.162Z,100643.81
2018-03-20T03:31:54.752Z,100637.44
2018-03-20T03:34:22.333Z,100620.47
2018-03-20T03:36:49.988Z,100619.57
2018-03-20T03:39:17.604Z,100625.44
2018-03-20T03:41:45.326Z,100638.80
2018-03-20T03:44:12.910Z,100632.14
2018-03-20T03:46:40.486Z,100628.03
2018-03-20T03:49:08.062Z,100629.75
2018-03-20T03:51:35.656Z,100625.17
2018-03-20T03:54:03.239Z,100625.62
2018-03-20T03:56:30.827Z,100621.38
2018-03-20T03:58:59.242Z,100620.53
2018-03-20T04:01:26.825Z,100609.89
2018-03-20T04:03:54.435Z,100612.81
2018-03-20T04:06:22.162Z,100630.25
2018-03-20T04:08:49.738Z,100626.28
2018-03-20T04:11:17.386Z,100629.00
2018-03-20T04:13:44.966Z,100634.98
2018-03-20T04:16:13.240Z,100640.09
2018-03-20T04:18:41.632Z,100648.52
2018-03-20T04:21:09.997Z,100634.54
2018-03-20T04:23:37.607Z,100644.33
2018-03-20T04:26:06.109Z,100653.65
2018-03-20T04:28:33.734Z,100658.19
2018-03-20T04:31:01.403Z,100658.34
2018-03-20T04:33:29.064Z,100663.13
2018-03-20T04:35:56.647Z,100661.04
2018-03-20T04:38:24.329Z,100661.28
2018-03-20T04:40:51.911Z,100655.05
2018-03-20T04:43:19.493Z,100660.62
2018-03-20T04:45:47.074Z,100660.55
2018-03-20T04:48:14.748Z,100668.16
2018-03-20T04:50:42.312Z,100668.23
2018-03-20T04:53:09.935Z,100666.11
2018-03-20T04:55:37.523Z,100665.13
2018-03-20T04:58:05.104Z,100663.06
2018-03-20T05:00:33.404Z,100669.45
2018-03-20T05:03:00.991Z,100669.00
2018-03-20T05:05:28.575Z,100665.53
2018-03-20T05:07:56.248Z,100665.91
2018-03-20T05:10:23.835Z,100664.64
2018-03-20T05:12:51.462Z,100662.88
2018-03-20T05:15:19.099Z,100661.20
2018-03-20T05:17:46.679Z,100661.98
2018-03-20T05:20:19.970Z,100658.14
2018-03-20T05:25:48.262Z,100655.47
2018-03-20T05:28:16.630Z,100646.53
2018-03-20T05:30:44.953Z,100649.34
2018-03-20T05:33:13.467Z,100655.67
2018-03-20T05:35:41.836Z,100657.31
2018-03-20T05:38:10.040Z,100653.04
2018-03-20T05:40:38.176Z,100648.28
2018-03-20T05:43:05.768Z,100655.73
2018-03-20T05:45:33.380Z,100657.47
2018-03-20T05:51:14.286Z,100650.46
2018-03-20T05:53:41.860Z,100645.20
2018-03-20T05:56:09.483Z,100641.22
2018-03-20T05:58:37.916Z,100638.17
2018-03-20T06:01:05.508Z,100650.47
2018-03-20T06:03:33.103Z,100646.65
2018-03-20T06:06:00.687Z,100649.67
2018-03-20T06:08:29.027Z,100647.87
2018-03-20T06:10:56.615Z,100637.93
2018-03-20T06:13:24.243Z,100642.02
2018-03-20T06:15:51.827Z,100646.41
2018-03-20T06:18:19.407Z,100649.03
2018-03-20T06:20:47.899Z,100642.23
2018-03-20T06:23:15.480Z,100651.88
2018-03-20T06:25:43.058Z,100653.51
2018-03-20T06:28:10.653Z,100653.86
2018-03-20T06:30:38.239Z,100653.07
2018-03-20T06:33:05.819Z,100652.30
2018-03-20T06:35:33.398Z,100658.75
2018-03-20T06:38:01.016Z,100653.05
2018-03-20T06:40:28.668Z,100653.89
2018-03-20T06:42:56.244Z,100663.66
2018-03-20T06:45:23.827Z,100660.58
2018-03-20T06:47:51.407Z,100665.22
2018-03-20T06:52:52.932Z,100672.87
2018-03-20T06:55:20.511Z,100676.33
2018-03-20T06:57:49.020Z,100677.04
2018-03-20T07:00:16.647Z,100677.04
2018-03-20T07:02:44.227Z,100673.37
2018-03-20T07:05:11.808Z,100667.30
2018-03-20T07:07:39.387Z,100656.34
2018-03-20T07:10:06.967Z,100660.92
2018-03-20T07:12:34.578Z,100658.48
2018-03-20T07:15:02.165Z,100661.13
2018-03-20T07:17:29.751Z,100654.20
2018-03-20T07:19:57.572Z,100654.11
2018-03-20T07:22:26.050Z,100656.70
2018-03-20T07:24:53.676Z,100659.12
2018-03-20T07:27:21.286Z,100654.34
2018-03-20T07:29:48.878Z,100656.53
2018-03-20T07:32:16.474Z,100657.98
2018-03-20T07:34:44.106Z,100665.86
2018-03-20T07:40:04.448Z,100674.81
2018-03-20T07:42:32.037Z,100680.12
2018-03-20T07:44:59.628Z,100680.20
2018-03-20T07:47:27.219Z,100689.55
2018-03-20T07:49:54.911Z,100698.13
2018-03-20T07:52:23.368Z,100701.73
2018-03-20T07:54:50.955Z,100704.80
2018-03-20T07:57:18.555Z,100701.22
2018-03-20T07:59:46.139Z,100713.77
2018-03-20T08:02:14.642Z,100708.21
2018-03-20T08:04:43.041Z,100717.50
2018-03-20T08:07:11.350Z,100721.23
2018-03-20T08:09:39.726Z,100724.52
2018-03-20T08:12:08.112Z,100734.25
2018-03-20T08:14:36.582Z,100734.45
2018-03-20T08:17:04.171Z,100735.72
2018-03-20T08:19:32.535Z,100740.08
2018-03-20T08:22:00.831Z,100740.39
2018-03-20T08:24:28.427Z,100738.17
2018-03-20T08:26:56.818Z,100741.36
2018-03-20T08:29:24.501Z,100748.34
2018-03-20T08:31:53.181Z,100753.94
2018-03-20T08:34:21.480Z,100749.71
2018-03-20T08:36:49.756Z,100756.77
2018-03-20T08:39:18.207Z,100757.60
2018-03-20T08:41:45.800Z,100762.37
2018-03-20T08:44:14.248Z,100769.81
2018-03-20T08:46:41.912Z,100770.62
2018-03-20T08:49:09.524Z,100778.13
2018-03-20T08:51:37.891Z,100779.42
2018-03-20T08:54:06.205Z,100781.48
2018-03-20T08:56:34.573Z,100785.13
2018-03-20T08:59:02.216Z,100788.97
2018-03-20T09:01:29.774Z,100784.33
2018-03-20T09:03:58.082Z,100791.27
2018-03-20T09:06:26.494Z,100793.33
2018-03-20T09:08:54.802Z,100792.81
2018-03-20T09:11:23.085Z,100794.80
2018-03-20T09:13:51.400Z,100799.75
2018-03-20T09:16:19.878Z,100803.61
2018-03-20T09:18:47.455Z,100797.71
2018-03-20T09:21:15.075Z,100802.36
2018-03-20T09:23:42.713Z,100812.38
2018-03-20T09:26:10.374Z,100813.50
2018-03-20T09:28:37.957Z,100813.11
2018-03-20T09:31:05.536Z,100818.19
2018-03-20T09:33:33.157Z,100814.77
2018-03-20T09:36:00.766Z,100831.45
2018-03-20T09:38:29.207Z,100823.63
2018-03-20T09:40:56.786Z,100834.67
2018-03-20T09:43:25.155Z,100834.11
2018-03-20T09:45:52.744Z,100839.30
2018-03-20T09:48:21.149Z,100838.02
2018-03-20T09:50:48.731Z,100853.98
2018-03-20T09:53:17.226Z,100859.22
2018-03-20T09:55:44.875Z,100862.80
2018-03-20T09:58:14.031Z,100863.74
2018-03-20T10:00:41.623Z,100869.13
2018-03-20T10:03:09.209Z,100870.26
2018-03-20T10:05:37.714Z,100872.07
2018-03-20T10:08:05.327Z,100874.52
2018-03-20T10:10:33.860Z,100877.05
2018-03-20T10:13:01.477Z,100882.66
2018-03-20T10:15:29.061Z,100884.23
2018-03-20T10:17:57.483Z,100885.17
2018-03-20T10:20:25.873Z,100893.39
2018-03-20T10:22:53.462Z,100892.70
2018-03-20T10:25:21.039Z,100898.74
2018-03-20T10:27:49.417Z,100900.38
2018-03-20T10:30:18.109Z,100898.58
2018-03-20T10:32:45.692Z,100899.70
2018-03-20T10:35:14.168Z,100897.89
2018-03-20T10:37:42.582Z,100893.68
2018-03-20T10:40:10.960Z,100904.31
2018-03-20T10:42:38.551Z,100909.03
2018-03-20T10:45:06.136Z,100910.92
2018-03-20T10:47:33.720Z,100909.64
2018-03-20T10:50:01.301Z,100910.16
2018-03-20T10:52:28.900Z,100909.72
2018-03-20T10:54:56.492Z,100918.79
2018-03-20T10:57:24.079Z,100912.06
2018-03-20T10:59:51.691Z,100921.13
2018-03-20T11:02:19.749Z,100917.77
2018-03-20T11:04:47.375Z,100927.67
2018-03-20T11:07:14.969Z,100933.69
2018-03-20T11:09:42.648Z,100941.83
2018-03-20T11:12:10.239Z,100940.12
2018-03-20T11:14:37.818Z,100946.70
2018-03-20T11:17:05.395Z,100957.22
2018-03-20T11:19:32.980Z,100965.02
2018-03-20T11:22:00.655Z,100967.96
2018-03-20T11:24:28.245Z,100964.07
2018-03-20T11:26:55.826Z,100970.88
2018-03-20T11:29:23.407Z,100977.70
2018-03-20T11:31:50.991Z,100976.57
2018-03-20T11:34:18.658Z,100989.38
2018-03-20T11:36:46.241Z,100993.77
2018-03-20T11:39:13.834Z,100993.76
2018-03-20T11:41:42.218Z,100994.30
2018-03-20T11:44:09.804Z,100998.92
2018-03-20T11:46:37.384Z,101003.61
2018-03-20T11:49:05.010Z,101006.55
2018-03-20T11:51:32.591Z,101006.58
2018-03-20T11:54:01.059Z,101013.10
2018-03-20T11:56:28.644Z,101013.97
2018-03-20T11:58:56.226Z,101015.75
2018-03-20T12:01:23.808Z,101017.73
2018-03-20T12:03:51.393Z,101031.60
2018-03-20T12:06:18.983Z,101033.93
2018-03-20T12:08:51.203Z,101040.72
2018-03-20T12:11:18.898Z,101044.77
2018-03-20T12:13:47.207Z,101046.77
2018-03-20T12:16:14.785Z,101048.53
2018-03-20T12:18:42.373Z,101051.96
2018-03-20T12:21:09.955Z,101050.40
2018-03-20T12:23:38.332Z,101054.05
2018-03-20T12:26:05.949Z,101054.98
2018-03-20T12:28:33.532Z,101068.11
2018-03-20T12:31:01.148Z,101071.24
2018-03-20T12:33:28.948Z,101074.91
2018-03-20T12:35:57.347Z,101077.12
2018-03-20T12:38:25.711Z,101082.16
2018-03-20T12:40:53.948Z,101081.36
2018-03-20T12:43:21.532Z,101085.14
2018-03-20T12:45:49.257Z,101090.25
2018-03-20T12:48:17.622Z,101096.77
2018-03-20T12:50:45.995Z,101095.02
2018-03-20T12:53:14.203Z,101097.16
2018-03-20T12:55:42.591Z,101102.38
2018-03-20T12:58:11.067Z,101096.75
2018-03-20T13:00:39.436Z,101101.48
2018-03-20T13:03:07.975Z,101108.78
2018-03-20T13:05:36.350Z,101114.67
2018-03-20T13:08:03.994Z,101121.09
2018-03-20T13:10:32.937Z,101124.01
2018-03-20T13:13:01.295Z,101122.55
2018-03-20T13:15:28.875Z,101122.03
2018-03-20T13:17:56.500Z,101124.13
2018-03-20T13:20:24.088Z,101123.89
2018-03-20T13:22:51.730Z,101125.20
2018-03-20T13:25:19.307Z,101125.74
2018-03-20T13:27:47.032Z,101125.37
2018-03-20T13:30:14.624Z,101124.69
2018-03-20T13:32:42.288Z,101123.07
2018-03-20T13:35:09.935Z,101130.05
2018-03-20T13:37:37.574Z,101116.98
2018-03-20T13:40:05.326Z,101124.87
2018-03-20T13:42:33.026Z,101126.50
2018-03-20T13:45:01.527Z,101130.64
2018-03-20T13:47:29.150Z,101131.99
2018-03-20T13:49:57.508Z,101137.39
2018-03-20T13:52:25.227Z,101139.52
2018-03-20T13:54:53.681Z,101143.59
2018-03-20T13:57:21.294Z,101149.02
2018-03-20T13:59:49.704Z,101147.61
2018-03-20T14:02:17.323Z,101152.77
2018-03-20T14:04:45.615Z,101156.72
2018-03-20T14:07:13.983Z,101158.31
2018-03-20T14:09:41.596Z,101159.13
2018-03-20T14:12:10.024Z,101166.89
2018-03-20T14:14:38.421Z,101157.34
2018-03-20T14:17:06.863Z,101167.30
2018-03-20T14:19:35.452Z,101170.23
2018-03-20T14:22:03.838Z,101176.02
2018-03-20T14:24:32.226Z,101178.52
2018-03-20T14:27:00.596Z,101174.54
2018-03-20T14:29:29.388Z,101179.98
2018-03-20T14:31:56.963Z,101190.28
2018-03-20T14:34:24.575Z,101188.08
2018-03-20T14:36:52.149Z,101191.55
2018-03-20T14:39:19.756Z,101191.94
2018-03-20T14:41:47.331Z,101203.57
2018-03-20T14:44:15.739Z,101196.63
2018-03-20T14:46:43.326Z,101208.94
2018-03-20T14:49:10.900Z,101208.52
2018-03-20T14:51:38.478Z,101209.40
2018-03-20T14:54:06.094Z,101219.20
2018-03-20T14:56:33.670Z,101223.53
2018-03-20T14:59:01.248Z,101230.52
2018-03-20T15:01:28.822Z,101233.75
2018-03-20T15:03:56.438Z,101236.72
2018-03-20T15:06:24.021Z,101245.23
2018-03-20T15:08:51.600Z,101246.60
2018-03-20T15:11:19.192Z,101258.75
2018-03-20T15:13:46.763Z,101266.98
2018-03-20T15:16:14.376Z,101273.76
2018-03-20T15:18:41.951Z,101275.09
2018-03-20T15:21:10.498Z,101277.91
2018-03-20T15:23:39.015Z,101294.56
2018-03-20T15:26:06.587Z,101287.25
2018-03-20T15:28:34.171Z,101294.61
2018-03-20T15:31:01.850Z,101296.95
2018-03-20T15:33:29.428Z,101310.95
2018-03-20T15:35:57.006Z,101309.50
2018-03-20T15:38:24.640Z,101312.63
2018-03-20T15:40:52.258Z,101312.17
2018-03-20T15:43:19.840Z,101316.78
2018-03-20T15:45:47.442Z,101322.35
2018-03-20T15:48:15.029Z,101327.71
2018-03-20T15:50:42.612Z,101338.12
2018-03-20T15:53:10.351Z,101336.23
2018-03-20T15:55:37.931Z,101345.22
2018-03-20T15:58:05.520Z,101351.25
2018-03-20T16:00:33.803Z,101354.25
2018-03-20T16:03:01.382Z,101360.98
2018-03-20T16:05:28.959Z,101370.41
2018-03-20T16:07:56.535Z,101373.34
2018-03-20T16:10:24.116Z,101377.00
2018-03-20T16:12:51.696Z,101382.88
2018-03-20T16:15:19.280Z,101387.77
2018-03-20T16:17:46.916Z,101391.45
2018-03-20T16:20:15.322Z,101392.11
2018-03-20T16:22:43.731Z,101397.21
2018-03-20T16:25:12.134Z,101405.80
2018-03-20T16:27:40.500Z,101404.94
2018-03-20T16:30:08.121Z,101416.99
2018-03-20T16:32:35.697Z,101418.43
2018-03-20T16:35:03.306Z,101421.25
2018-03-20T16:37:30.923Z,101425.78
2018-03-20T16:39:58.567Z,101433.16
2018-03-20T16:42:26.874Z,101432.17
2018-03-20T16:44:55.268Z,101436.63
2018-03-20T16:47:22.839Z,101433.24
2018-03-20T16:49:50.419Z,101448.39
2018-03-20T16:52:18.995Z,101454.33
2018-03-20T16:54:47.482Z,101467.08
2018-03-20T16:57:15.551Z,101472.20
2018-03-20T16:59:43.147Z,101470.13
2018-03-20T17:02:10.768Z,101478.79
2018-03-20T17:04:39.126Z,101486.62
2018-03-20T17:07:07.530Z,101483.66
2018-03-20T17:09:35.808Z,101495.84
2018-03-20T17:12:04.221Z,101486.38
2018-03-20T17:14:32.707Z,101502.86
2018-03-20T17:17:00.327Z,101500.95
2018-03-20T17:19:27.913Z,101508.23
2018-03-20T17:21:56.436Z,101517.02
2018-03-20T17:24:24.859Z,101517.30
2018-03-20T17:26:52.499Z,101533.73
2018-03-20T17:29:20.148Z,101542.70
2018-03-20T17:31:47.763Z,101538.05
2018-03-20T17:34:16.032Z,101541.09
2018-03-20T17:36:43.604Z,101546.48
2018-03-20T17:39:14.903Z,101547.72
2018-03-20T17:41:42.484Z,101559.89
2018-03-20T17:44:10.092Z,101570.05
2018-03-20T17:46:38.390Z,101568.05
2018-03-20T17:49:06.053Z,101581.13
2018-03-20T17:51:33.641Z,101579.67
2018-03-20T17:54:01.229Z,101585.29
2018-03-20T17:56:28.810Z,101594.27
2018-03-20T17:58:56.501Z,101596.45
2018-03-20T18:01:25.189Z,101603.47
2018-03-20T18:03:52.771Z,101602.14
2018-03-20T18:06:20.354Z,101607.86
2018-03-20T18:08:47.988Z,101611.45
2018-03-20T18:11:15.572Z,101619.59
2018-03-20T18:13:43.164Z,101628.69
2018-03-20T18:16:10.749Z,101626.77
2018-03-20T18:18:38.371Z,101627.36
2018-03-20T18:21:05.991Z,101640.45
2018-03-20T18:23:33.565Z,101648.22
2018-03-20T18:26:01.146Z,101648.39
2018-03-20T18:28:28.808Z,101655.17
2018-03-20T18:30:56.396Z,101657.88
2018-03-20T18:33:24.016Z,101664.91
2018-03-20T18:35:51.599Z,101667.59
2018-03-20T18:38:19.295Z,101670.67
2018-03-20T18:40:46.872Z,101677.37
2018-03-20T18:43:14.456Z,101682.68
2018-03-20T18:45:42.959Z,101681.94
2018-03-20T18:48:10.626Z,101688.66
2018-03-20T18:50:38.207Z,101694.02
2018-03-20T18:53:05.830Z,101704.53
2018-03-20T18:55:34.271Z,101704.42
2018-03-20T18:58:01.892Z,101710.47
2018-03-20T19:00:29.482Z,101714.28
2018-03-20T19:02:57.064Z,101721.55
2018-03-20T19:05:24.678Z,101715.00
2018-03-20T19:07:52.317Z,101722.36
2018-03-20T19:10:19.907Z,101728.76
2018-03-20T19:12:47.600Z,101732.23
2018-03-20T19:15:15.227Z,101738.19
2018-03-20T19:17:43.663Z,101747.67
2018-03-20T19:20:12.080Z,101750.31
2018-03-20T19:22:40.467Z,101759.77
2018-03-20T19:25:08.762Z,101764.59
2018-03-20T19:27:36.360Z,101769.27
2018-03-20T19:30:03.969Z,101771.88
2018-03-20T19:32:31.554Z,101775.70
2018-03-20T19:34:59.168Z,101785.27
2018-03-20T19:37:26.787Z,101787.92
2018-03-20T19:39:54.376Z,101797.02
2018-03-20T19:42:21.959Z,101801.25
2018-03-20T19:44:49.575Z,101805.63
2018-03-20T19:47:17.183Z,101811.23
2018-03-20T19:49:44.759Z,101814.51
2018-03-20T19:52:12.465Z,101816.73
2018-03-20T19:54:40.056Z,101825.28
2018-03-20T19:57:07.890Z,101824.11
2018-03-20T19:59:35.480Z,101835.30
2018-03-20T20:02:03.061Z,101834.13
2018-03-20T20:04:30.659Z,101840.05
2018-03-20T20:06:58.340Z,101842.70
2018-03-20T20:09:26.032Z,101844.03
2018-03-20T20:11:53.623Z,101843.48
2018-03-20T20:14:21.759Z,101836.67
2018-03-20T20:16:49.350Z,101846.05
2018-03-20T20:19:16.936Z,101856.43
2018-03-20T20:21:44.519Z,101859.97
2018-03-20T20:24:12.107Z,101858.34
2018-03-20T20:26:39.692Z,101868.59
2018-03-20T20:29:07.313Z,101872.05
2018-03-20T20:31:34.908Z,101878.09
2018-03-20T20:34:03.432Z,101883.14
2018-03-20T20:36:31.011Z,101887.19
2018-03-20T20:38:58.703Z,101887.60
2018-03-20T20:41:26.366Z,101898.73
2018-03-20T20:43:53.948Z,101897.44
2018-03-20T20:46:21.535Z,101905.14
2018-03-20T20:48:49.331Z,101894.92
2018-03-20T20:51:17.012Z,101899.23
2018-03-20T20:53:44.595Z,101901.91
2018-03-20T20:56:12.167Z,101900.21
2018-03-20T20:58:39.758Z,101898.94
2018-03-20T21:01:07.395Z,101903.25
2018-03-20T21:03:34.984Z,101913.14
2018-03-20T21:06:02.564Z,101911.88
2018-03-20T21:08:30.217Z,101915.25
2018-03-20T21:10:57.892Z,101918.30
2018-03-20T21:13:25.482Z,101924.73
2018-03-20T21:15:53.075Z,101926.88
2018-03-20T21:18:20.654Z,101925.95
2018-03-20T21:20:48.231Z,101925.06
2018-03-20T21:23:15.919Z,101924.27
2018-03-20T21:25:43.576Z,101926.02
2018-03-20T21:28:11.234Z,101926.02
2018-03-20T21:30:38.838Z,101931.94
2018-03-20T21:33:06.485Z,101935.86
2018-03-20T21:35:34.039Z,101936.31
2018-03-20T21:38:01.625Z,101941.00
2018-03-20T21:40:29.212Z,101945.25
2018-03-20T21:42:56.796Z,101949.19
2018-03-20T21:45:24.494Z,101944.89
2018-03-20T21:47:52.146Z,101947.80
2018-03-20T21:50:20.286Z,101944.89
2018-03-20T21:52:47.873Z,101950.48
2018-03-20T21:55:15.455Z,101956.10
2018-03-20T21:57:47.903Z,101953.99
2018-03-20T22:00:18.515Z,101957.78
2018-03-20T22:02:49.394Z,101958.63
2018-03-20T22:05:25.622Z,101962.98
2018-03-20T22:08:05.047Z,101970.65
2018-03-20T22:10:35.475Z,101965.47
2018-03-20T22:13:04.775Z,101972.30
2018-03-20T22:18:15.699Z,101980.88
2018-03-20T22:20:51.287Z,101981.78
2018-03-20T22:23:22.130Z,101986.54
2018-03-20T22:25:52.664Z,101981.83
2018-03-20T22:28:25.940Z,101991.23
2018-03-20T22:30:58.869Z,101991.19
2018-03-20T22:33:29.606Z,102001.47
2018-03-20T22:36:00.493Z,101997.64
2018-03-20T22:38:30.691Z,102008.81
2018-03-20T22:40:58.328Z,102009.68
2018-03-20T22:43:26.226Z,102014.38
2018-03-20T22:45:53.843Z,102013.53
2018-03-20T22:48:23.659Z,102016.93
2018-03-20T22:50:51.859Z,102017.41
2018-03-20T22:53:19.623Z,102013.11
2018-03-20T22:55:47.258Z,102017.00
2018-03-20T22:58:14.814Z,102014.84
2018-03-20T23:00:42.403Z,102022.09
2018-03-20T23:03:10.027Z,102024.64
2018-03-20T23:05:37.740Z,102032.39
2018-03-20T23:08:05.322Z,102024.67
2018-03-20T23:10:32.908Z,102030.27
2018-03-20T23:13:00.587Z,102031.97
2018-03-20T23:15:28.167Z,102023.86
2018-03-20T23:17:55.863Z,102037.56
2018-03-20T23:20:23.439Z,102029.86
2018-03-20T23:22:51.019Z,102026.80
2018-03-20T23:25:19.512Z,102034.07
2018-03-20T23:27:47.906Z,102028.55
2018-03-20T23:30:16.411Z,102031.55
2018-03-20T23:32:43.991Z,102035.34
2018-03-20T23:35:11.566Z,102036.66
2018-03-20T23:37:39.148Z,102037.47
2018-03-20T23:40:07.692Z,102034.92
2018-03-20T23:42:36.077Z,102039.17
2018-03-20T23:45:03.665Z,102045.25
2018-03-20T23:47:31.243Z,102051.66
2018-03-20T23:49:59.758Z,102055.95
2018-03-20T23:52:27.346Z,102058.55
2018-03-20T23:54:54.935Z,102064.53
2018-03-20T23:57:22.523Z,102068.36
2018-03-20T23:59:51.135Z,102069.22
